Terminal Aerodrome Forecast
Issued by NWS

Home | Current Version | Previous Version | Graphics & Text | Print | Product List | Glossary On
Versions: 1 2 3 4 5 6 7 8 9 10 11 12 13 14 15 16 17 18 19 20 21 22
000
FTUS43 KMPX 190520
TAFAXN
TAF
KAXN 190520Z 1906/2006 VRB03KT P6SM BKN150
     FM190800 13006KT P6SM BKN150
     FM191400 13009KT P6SM BKN150
     FM191800 13012G19KT P6SM BKN120=

USA.gov is the U.S. government's official web portal to all federal, state and local government web resources and services.